sensor_id;sensor_type;location;lat;lon;timestamp;pressure;altitude;pressure_sealevel;temperature;humidity
68107;BME280;54892;47.488;19.026;2023-01-13T00:01:38;100420.94;;;2.91;95.35
68107;BME280;54892;47.488;19.026;2023-01-13T00:04:43;100417.72;;;2.88;95.49
68107;BME280;54892;47.488;19.026;2023-01-13T00:07:48;100419.34;;;2.89;95.36
68107;BME280;54892;47.488;19.026;2023-01-13T00:10:52;100414.13;;;2.89;94.85
68107;BME280;54892;47.488;19.026;2023-01-13T00:13:55;100412.88;;;2.85;95.79
68107;BME280;54892;47.488;19.026;2023-01-13T00:16:59;100413.44;;;2.74;95.55
68107;BME280;54892;47.488;19.026;2023-01-13T00:20:05;100411.44;;;2.76;95.22
68107;BME280;54892;47.488;19.026;2023-01-13T00:23:09;100407.19;;;2.68;95.97
68107;BME280;54892;47.488;19.026;2023-01-13T00:26:14;100404.31;;;2.56;96.11
68107;BME280;54892;47.488;19.026;2023-01-13T00:29:18;100403.09;;;2.52;96.48
68107;BME280;54892;47.488;19.026;2023-01-13T00:32:21;100407.50;;;2.52;96.77
68107;BME280;54892;47.488;19.026;2023-01-13T00:35:26;100406.69;;;2.51;96.93
68107;BME280;54892;47.488;19.026;2023-01-13T00:38:31;100402.94;;;2.61;96.58
68107;BME280;54892;47.488;19.026;2023-01-13T00:41:37;100409.75;;;2.55;96.50
68107;BME280;54892;47.488;19.026;2023-01-13T00:44:58;100394.13;;;2.62;96.08
68107;BME280;54892;47.488;19.026;2023-01-13T00:48:02;100398.34;;;2.63;96.15
68107;BME280;54892;47.488;19.026;2023-01-13T00:51:10;100400.56;;;2.66;96.25
68107;BME280;54892;47.488;19.026;2023-01-13T00:54:15;100388.31;;;2.59;96.84
68107;BME280;54892;47.488;19.026;2023-01-13T00:57:19;100392.03;;;2.50;97.74
68107;BME280;54892;47.488;19.026;2023-01-13T01:00:23;100388.69;;;2.56;97.21
68107;BME280;54892;47.488;19.026;2023-01-13T01:03:26;100396.75;;;2.62;97.14
68107;BME280;54892;47.488;19.026;2023-01-13T01:06:31;100395.53;;;2.64;97.05
68107;BME280;54892;47.488;19.026;2023-01-13T01:09:35;100392.53;;;2.61;97.00
68107;BME280;54892;47.488;19.026;2023-01-13T01:12:40;100384.25;;;2.57;97.37
68107;BME280;54892;47.488;19.026;2023-01-13T01:15:43;100389.91;;;2.61;97.82
68107;BME280;54892;47.488;19.026;2023-01-13T01:18:50;100383.72;;;2.62;97.54
68107;BME280;54892;47.488;19.026;2023-01-13T01:21:55;100392.34;;;2.69;97.57
68107;BME280;54892;47.488;19.026;2023-01-13T01:24:59;100376.50;;;2.64;97.69
68107;BME280;54892;47.488;19.026;2023-01-13T01:28:03;100376.75;;;2.76;97.18
68107;BME280;54892;47.488;19.026;2023-01-13T01:31:07;100368.12;;;2.75;96.89
68107;BME280;54892;47.488;19.026;2023-01-13T01:34:11;100368.31;;;2.73;97.19
68107;BME280;54892;47.488;19.026;2023-01-13T01:37:16;100369.50;;;2.71;97.66
68107;BME280;54892;47.488;19.026;2023-01-13T01:40:20;100373.31;;;2.68;97.80
68107;BME280;54892;47.488;19.026;2023-01-13T01:43:44;100378.72;;;2.73;98.18
68107;BME280;54892;47.488;19.026;2023-01-13T01:47:01;100379.56;;;2.74;98.19
68107;BME280;54892;47.488;19.026;2023-01-13T01:50:05;100367.53;;;2.73;97.83
68107;BME280;54892;47.488;19.026;2023-01-13T01:53:12;100364.72;;;2.81;97.43
68107;BME280;54892;47.488;19.026;2023-01-13T01:56:19;100361.53;;;2.79;97.39
68107;BME280;54892;47.488;19.026;2023-01-13T01:59:24;100355.91;;;2.82;97.53
68107;BME280;54892;47.488;19.026;2023-01-13T02:02:29;100354.31;;;2.81;97.42
68107;BME280;54892;47.488;19.026;2023-01-13T02:05:33;100346.31;;;2.83;97.71
68107;BME280;54892;47.488;19.026;2023-01-13T02:08:39;100348.69;;;2.78;97.46
68107;BME280;54892;47.488;19.026;2023-01-13T02:11:43;100352.50;;;2.75;97.77
68107;BME280;54892;47.488;19.026;2023-01-13T02:15:06;100357.94;;;2.80;97.21
68107;BME280;54892;47.488;19.026;2023-01-13T02:18:23;100353.25;;;2.69;97.14
68107;BME280;54892;47.488;19.026;2023-01-13T02:21:51;100344.41;;;2.63;97.19
68107;BME280;54892;47.488;19.026;2023-01-13T02:25:16;100347.00;;;2.56;98.16
68107;BME280;54892;47.488;19.026;2023-01-13T02:28:44;100341.56;;;2.58;98.22
68107;BME280;54892;47.488;19.026;2023-01-13T02:32:19;100338.09;;;2.79;97.28
68107;BME280;54892;47.488;19.026;2023-01-13T02:35:26;100334.00;;;2.63;97.29
68107;BME280;54892;47.488;19.026;2023-01-13T02:38:34;100338.00;;;2.66;97.73
68107;BME280;54892;47.488;19.026;2023-01-13T02:41:45;100331.59;;;2.62;97.52
68107;BME280;54892;47.488;19.026;2023-01-13T02:45:12;100332.00;;;2.65;97.59
68107;BME280;54892;47.488;19.026;2023-01-13T02:48:21;100327.38;;;2.61;97.73
68107;BME280;54892;47.488;19.026;2023-01-13T02:51:28;100335.44;;;2.72;97.11
68107;BME280;54892;47.488;19.026;2023-01-13T02:54:35;100329.81;;;2.69;97.14
68107;BME280;54892;47.488;19.026;2023-01-13T02:57:42;100330.19;;;2.66;97.28
68107;BME280;54892;47.488;19.026;2023-01-13T03:00:48;100323.81;;;2.68;97.41
68107;BME280;54892;47.488;19.026;2023-01-13T03:03:53;100325.81;;;2.73;97.24
68107;BME280;54892;47.488;19.026;2023-01-13T03:07:03;100322.41;;;2.72;96.81
68107;BME280;54892;47.488;19.026;2023-01-13T03:10:28;100324.22;;;2.72;96.44
68107;BME280;54892;47.488;19.026;2023-01-13T03:14:00;100329.81;;;2.69;96.44
68107;BME280;54892;47.488;19.026;2023-01-13T03:17:15;100314.63;;;2.79;96.00
68107;BME280;54892;47.488;19.026;2023-01-13T03:20:26;100315.97;;;2.62;96.21
68107;BME280;54892;47.488;19.026;2023-01-13T03:23:35;100315.78;;;2.77;95.60
68107;BME280;54892;47.488;19.026;2023-01-13T03:26:44;100315.37;;;2.73;94.65
68107;BME280;54892;47.488;19.026;2023-01-13T03:29:54;100312.72;;;2.59;96.16
68107;BME280;54892;47.488;19.026;2023-01-13T03:33:03;100307.91;;;2.56;96.15
68107;BME280;54892;47.488;19.026;2023-01-13T03:36:10;100305.47;;;2.48;96.73
68107;BME280;54892;47.488;19.026;2023-01-13T03:39:19;100310.72;;;2.55;95.79
68107;BME280;54892;47.488;19.026;2023-01-13T03:42:25;100318.87;;;2.45;96.58
68107;BME280;54892;47.488;19.026;2023-01-13T03:45:31;100307.03;;;2.42;96.86
68107;BME280;54892;47.488;19.026;2023-01-13T03:48:35;100299.66;;;2.46;96.57
68107;BME280;54892;47.488;19.026;2023-01-13T03:51:43;100297.59;;;2.41;97.02
68107;BME280;54892;47.488;19.026;2023-01-13T03:54:52;100301.47;;;2.52;96.61
68107;BME280;54892;47.488;19.026;2023-01-13T03:58:01;100300.28;;;2.48;96.86
68107;BME280;54892;47.488;19.026;2023-01-13T04:01:11;100310.88;;;2.47;97.19
68107;BME280;54892;47.488;19.026;2023-01-13T04:04:20;100301.50;;;2.66;96.11
68107;BME280;54892;47.488;19.026;2023-01-13T04:07:32;100306.69;;;2.52;96.73
68107;BME280;54892;47.488;19.026;2023-01-13T04:10:46;100309.72;;;2.56;96.59
68107;BME280;54892;47.488;19.026;2023-01-13T04:13:53;100310.12;;;2.59;95.77
68107;BME280;54892;47.488;19.026;2023-01-13T04:16:58;100303.66;;;2.49;96.66
68107;BME280;54892;47.488;19.026;2023-01-13T04:20:01;100302.25;;;2.46;96.78
68107;BME280;54892;47.488;19.026;2023-01-13T04:23:07;100297.28;;;2.58;96.16
68107;BME280;54892;47.488;19.026;2023-01-13T04:26:11;100304.25;;;2.44;96.46
68107;BME280;54892;47.488;19.026;2023-01-13T04:29:14;100308.91;;;2.55;96.31
68107;BME280;54892;47.488;19.026;2023-01-13T04:32:18;100312.06;;;2.44;96.38
68107;BME280;54892;47.488;19.026;2023-01-13T04:35:21;100307.69;;;2.51;96.75
68107;BME280;54892;47.488;19.026;2023-01-13T04:38:26;100319.34;;;2.62;96.04
68107;BME280;54892;47.488;19.026;2023-01-13T04:41:30;100319.72;;;2.52;96.58
68107;BME280;54892;47.488;19.026;2023-01-13T04:44:53;100315.69;;;2.50;96.96
68107;BME280;54892;47.488;19.026;2023-01-13T04:47:58;100319.91;;;2.51;97.17
68107;BME280;54892;47.488;19.026;2023-01-13T04:51:01;100320.31;;;2.54;96.91
68107;BME280;54892;47.488;19.026;2023-01-13T04:54:07;100316.56;;;2.64;96.45
68107;BME280;54892;47.488;19.026;2023-01-13T04:57:11;100302.09;;;2.61;96.21
68107;BME280;54892;47.488;19.026;2023-01-13T05:00:18;100313.47;;;2.47;96.73
68107;BME280;54892;47.488;19.026;2023-01-13T05:03:21;100319.53;;;2.54;96.33
68107;BME280;54892;47.488;19.026;2023-01-13T05:06:28;100313.84;;;2.43;97.04
68107;BME280;54892;47.488;19.026;2023-01-13T05:09:32;100310.16;;;2.66;96.30
68107;BME280;54892;47.488;19.026;2023-01-13T05:12:38;100321.53;;;2.52;96.12
68107;BME280;54892;47.488;19.026;2023-01-13T05:15:59;100318.03;;;2.38;96.97
68107;BME280;54892;47.488;19.026;2023-01-13T05:19:20;100316.03;;;2.40;97.17
68107;BME280;54892;47.488;19.026;2023-01-13T05:22:24;100321.25;;;2.40;97.50
68107;BME280;54892;47.488;19.026;2023-01-13T05:25:47;100328.28;;;2.39;97.60
68107;BME280;54892;47.488;19.026;2023-01-13T05:28:51;100333.66;;;2.38;97.76
68107;BME280;54892;47.488;19.026;2023-01-13T05:31:55;100336.44;;;2.30;97.88
68107;BME280;54892;47.488;19.026;2023-01-13T05:34:59;100338.06;;;2.31;97.92
68107;BME280;54892;47.488;19.026;2023-01-13T05:38:03;100335.25;;;2.32;98.09
68107;BME280;54892;47.488;19.026;2023-01-13T05:41:09;100338.25;;;2.36;97.94
68107;BME280;54892;47.488;19.026;2023-01-13T05:44:30;100333.06;;;2.36;98.04
68107;BME280;54892;47.488;19.026;2023-01-13T05:47:33;100331.69;;;2.40;97.80
68107;BME280;54892;47.488;19.026;2023-01-13T05:50:37;100326.13;;;2.50;97.15
68107;BME280;54892;47.488;19.026;2023-01-13T05:53:41;100328.94;;;2.48;96.54
68107;BME280;54892;47.488;19.026;2023-01-13T05:56:46;100330.50;;;2.49;96.38
68107;BME280;54892;47.488;19.026;2023-01-13T05:59:50;100332.09;;;2.43;97.12
68107;BME280;54892;47.488;19.026;2023-01-13T06:02:53;100330.91;;;2.46;96.91
68107;BME280;54892;47.488;19.026;2023-01-13T06:05:57;100328.31;;;2.46;96.57
68107;BME280;54892;47.488;19.026;2023-01-13T06:09:03;100343.09;;;2.39;97.17
68107;BME280;54892;47.488;19.026;2023-01-13T06:12:10;100339.50;;;2.40;97.19
68107;BME280;54892;47.488;19.026;2023-01-13T06:15:14;100338.66;;;2.33;97.75
68107;BME280;54892;47.488;19.026;2023-01-13T06:18:18;100333.84;;;2.30;98.21
68107;BME280;54892;47.488;19.026;2023-01-13T06:21:22;100329.25;;;2.32;98.17
68107;BME280;54892;47.488;19.026;2023-01-13T06:24:26;100335.28;;;2.39;97.57
68107;BME280;54892;47.488;19.026;2023-01-13T06:27:33;100341.34;;;2.46;97.58
68107;BME280;54892;47.488;19.026;2023-01-13T06:30:38;100340.78;;;2.57;96.55
68107;BME280;54892;47.488;19.026;2023-01-13T06:33:44;100344.56;;;2.48;96.98
68107;BME280;54892;47.488;19.026;2023-01-13T06:36:51;100349.56;;;2.50;96.99
68107;BME280;54892;47.488;19.026;2023-01-13T06:39:59;100348.16;;;2.47;97.25
68107;BME280;54892;47.488;19.026;2023-01-13T06:43:04;100337.72;;;2.40;97.63
68107;BME280;54892;47.488;19.026;2023-01-13T06:46:18;100353.94;;;2.42;97.86
68107;BME280;54892;47.488;19.026;2023-01-13T06:49:22;100356.56;;;2.49;97.92
68107;BME280;54892;47.488;19.026;2023-01-13T06:52:26;100358.19;;;2.50;97.45
68107;BME280;54892;47.488;19.026;2023-01-13T06:55:31;100356.81;;;2.54;97.49
68107;BME280;54892;47.488;19.026;2023-01-13T06:58:36;100362.63;;;2.56;97.32
68107;BME280;54892;47.488;19.026;2023-01-13T07:01:40;100364.25;;;2.57;97.30
68107;BME280;54892;47.488;19.026;2023-01-13T07:04:43;100358.00;;;2.52;97.17
68107;BME280;54892;47.488;19.026;2023-01-13T07:07:48;100367.59;;;2.51;97.39
68107;BME280;54892;47.488;19.026;2023-01-13T07:10:51;100363.38;;;2.50;97.29
68107;BME280;54892;47.488;19.026;2023-01-13T07:13:56;100370.81;;;2.53;97.38
68107;BME280;54892;47.488;19.026;2023-01-13T07:17:18;100369.06;;;2.61;96.89
68107;BME280;54892;47.488;19.026;2023-01-13T07:20:26;100374.97;;;2.76;96.54
68107;BME280;54892;47.488;19.026;2023-01-13T07:23:33;100365.53;;;2.75;96.49
68107;BME280;54892;47.488;19.026;2023-01-13T07:26:38;100355.87;;;2.76;96.69
68107;BME280;54892;47.488;19.026;2023-01-13T07:29:43;100360.34;;;2.82;96.71
68107;BME280;54892;47.488;19.026;2023-01-13T07:32:47;100360.38;;;2.88;96.47
68107;BME280;54892;47.488;19.026;2023-01-13T07:35:55;100366.41;;;2.96;96.46
68107;BME280;54892;47.488;19.026;2023-01-13T07:38:59;100365.63;;;3.02;95.72
68107;BME280;54892;47.488;19.026;2023-01-13T07:42:03;100365.66;;;3.15;94.91
68107;BME280;54892;47.488;19.026;2023-01-13T07:45:25;100369.69;;;3.18;94.47
68107;BME280;54892;47.488;19.026;2023-01-13T07:48:30;100373.72;;;3.20;94.51
68107;BME280;54892;47.488;19.026;2023-01-13T07:51:34;100386.75;;;3.20;94.00
68107;BME280;54892;47.488;19.026;2023-01-13T07:54:39;100376.13;;;3.29;93.72
68107;BME280;54892;47.488;19.026;2023-01-13T07:57:43;100385.16;;;3.33;94.12
68107;BME280;54892;47.488;19.026;2023-01-13T08:00:48;100380.78;;;3.40;93.79
68107;BME280;54892;47.488;19.026;2023-01-13T08:03:52;100391.41;;;3.39;94.11
68107;BME280;54892;47.488;19.026;2023-01-13T08:06:55;100383.41;;;3.54;93.04
68107;BME280;54892;47.488;19.026;2023-01-13T08:09:59;100392.41;;;3.44;93.13
68107;BME280;54892;47.488;19.026;2023-01-13T08:13:07;100394.44;;;3.42;93.41
68107;BME280;54892;47.488;19.026;2023-01-13T08:16:22;100406.44;;;3.37;93.20
68107;BME280;54892;47.488;19.026;2023-01-13T08:19:26;100406.06;;;3.40;93.15
68107;BME280;54892;47.488;19.026;2023-01-13T08:22:30;100400.06;;;3.39;93.25
68107;BME280;54892;47.488;19.026;2023-01-13T08:25:34;100402.22;;;3.35;93.19
68107;BME280;54892;47.488;19.026;2023-01-13T08:28:38;100402.66;;;3.39;93.31
68107;BME280;54892;47.488;19.026;2023-01-13T08:31:43;100402.28;;;3.42;93.00
68107;BME280;54892;47.488;19.026;2023-01-13T08:34:47;100410.91;;;3.49;92.74
68107;BME280;54892;47.488;19.026;2023-01-13T08:37:51;100412.72;;;3.42;92.67
68107;BME280;54892;47.488;19.026;2023-01-13T08:40:55;100416.13;;;3.49;91.93
68107;BME280;54892;47.488;19.026;2023-01-13T08:43:58;100418.72;;;3.49;92.17
68107;BME280;54892;47.488;19.026;2023-01-13T08:47:03;100425.19;;;3.54;91.74
68107;BME280;54892;47.488;19.026;2023-01-13T08:50:08;100420.75;;;3.61;90.95
68107;BME280;54892;47.488;19.026;2023-01-13T08:53:13;100419.75;;;3.62;90.99
68107;BME280;54892;47.488;19.026;2023-01-13T08:56:16;100430.41;;;3.67;90.02
68107;BME280;54892;47.488;19.026;2023-01-13T08:59:20;100426.56;;;3.56;90.68
68107;BME280;54892;47.488;19.026;2023-01-13T09:02:25;100432.78;;;3.55;90.35
68107;BME280;54892;47.488;19.026;2023-01-13T09:05:29;100429.41;;;3.55;90.26
68107;BME280;54892;47.488;19.026;2023-01-13T09:08:32;100430.00;;;3.50;90.90
68107;BME280;54892;47.488;19.026;2023-01-13T09:11:39;100426.34;;;3.51;90.81
68107;BME280;54892;47.488;19.026;2023-01-13T09:15:01;100429.41;;;3.55;90.67
68107;BME280;54892;47.488;19.026;2023-01-13T09:18:06;100418.72;;;3.49;91.10
68107;BME280;54892;47.488;19.026;2023-01-13T09:21:10;100418.94;;;3.48;91.11
68107;BME280;54892;47.488;19.026;2023-01-13T09:24:15;100415.50;;;3.47;91.27
68107;BME280;54892;47.488;19.026;2023-01-13T09:27:19;100408.31;;;3.63;90.27
68107;BME280;54892;47.488;19.026;2023-01-13T09:30:22;100416.13;;;3.56;90.54
68107;BME280;54892;47.488;19.026;2023-01-13T09:33:27;100416.75;;;3.65;90.47
68107;BME280;54892;47.488;19.026;2023-01-13T09:36:48;100418.38;;;3.73;90.64
68107;BME280;54892;47.488;19.026;2023-01-13T09:39:52;100412.94;;;3.74;89.57
68107;BME280;54892;47.488;19.026;2023-01-13T09:43:01;100420.37;;;3.71;90.35
68107;BME280;54892;47.488;19.026;2023-01-13T09:46:30;100407.31;;;3.77;89.90
68107;BME280;54892;47.488;19.026;2023-01-13T09:49:49;100409.53;;;3.80;89.88
68107;BME280;54892;47.488;19.026;2023-01-13T09:52:54;100400.72;;;3.81;89.99
68107;BME280;54892;47.488;19.026;2023-01-13T09:55:58;100405.53;;;3.78;90.29
68107;BME280;54892;47.488;19.026;2023-01-13T09:59:01;100403.53;;;3.80;90.04
68107;BME280;54892;47.488;19.026;2023-01-13T10:02:30;100405.72;;;3.76;90.07
68107;BME280;54892;47.488;19.026;2023-01-13T10:05:39;100400.31;;;3.85;89.94
68107;BME280;54892;47.488;19.026;2023-01-13T10:08:46;100406.53;;;3.84;90.03
68107;BME280;54892;47.488;19.026;2023-01-13T10:11:54;100402.09;;;3.77;90.38
68107;BME280;54892;47.488;19.026;2023-01-13T10:15:18;100409.94;;;3.91;90.32
68107;BME280;54892;47.488;19.026;2023-01-13T10:18:27;100407.16;;;3.86;89.93
68107;BME280;54892;47.488;19.026;2023-01-13T10:22:02;100396.69;;;3.99;89.69
68107;BME280;54892;47.488;19.026;2023-01-13T10:28:53;100400.09;;;3.86;89.77
68107;BME280;54892;47.488;19.026;2023-01-13T10:31:57;100396.09;;;3.84;90.87
68107;BME280;54892;47.488;19.026;2023-01-13T10:35:01;100396.87;;;3.91;90.62
68107;BME280;54892;47.488;19.026;2023-01-13T10:38:14;100399.91;;;4.01;90.71
68107;BME280;54892;47.488;19.026;2023-01-13T10:41:23;100398.28;;;4.20;89.42
68107;BME280;54892;47.488;19.026;2023-01-13T10:44:28;100390.66;;;4.05;90.28
68107;BME280;54892;47.488;19.026;2023-01-13T10:47:34;100377.59;;;4.19;89.32
68107;BME280;54892;47.488;19.026;2023-01-13T10:50:39;100380.41;;;4.04;89.87
68107;BME280;54892;47.488;19.026;2023-01-13T10:53:50;100370.19;;;4.02;90.68
68107;BME280;54892;47.488;19.026;2023-01-13T10:57:11;100367.38;;;3.97;90.99
68107;BME280;54892;47.488;19.026;2023-01-13T11:00:25;100363.13;;;4.03;91.15
68107;BME280;54892;47.488;19.026;2023-01-13T11:03:36;100363.97;;;4.03;90.82
68107;BME280;54892;47.488;19.026;2023-01-13T11:06:44;100357.12;;;4.02;90.67
68107;BME280;54892;47.488;19.026;2023-01-13T11:10:02;100348.06;;;4.05;90.78
68107;BME280;54892;47.488;19.026;2023-01-13T11:13:11;100347.06;;;3.99;90.54
68107;BME280;54892;47.488;19.026;2023-01-13T11:16:17;100340.44;;;4.03;90.06
68107;BME280;54892;47.488;19.026;2023-01-13T11:19:23;100342.44;;;4.15;88.95
68107;BME280;54892;47.488;19.026;2023-01-13T11:22:33;100336.63;;;3.92;89.63
68107;BME280;54892;47.488;19.026;2023-01-13T11:25:43;100326.97;;;3.93;89.88
68107;BME280;54892;47.488;19.026;2023-01-13T11:28:50;100325.00;;;3.81;90.89
68107;BME280;54892;47.488;19.026;2023-01-13T11:32:03;100312.72;;;3.82;91.27
68107;BME280;54892;47.488;19.026;2023-01-13T11:35:15;100313.34;;;3.77;90.25
68107;BME280;54892;47.488;19.026;2023-01-13T11:38:26;100322.16;;;3.76;90.51
68107;BME280;54892;47.488;19.026;2023-01-13T11:41:41;100320.38;;;3.70;91.59
68107;BME280;54892;47.488;19.026;2023-01-13T11:44:48;100319.78;;;3.75;91.36
68107;BME280;54892;47.488;19.026;2023-01-13T11:47:57;100327.38;;;3.83;91.37
68107;BME280;54892;47.488;19.026;2023-01-13T11:51:06;100316.16;;;3.89;90.92
68107;BME280;54892;47.488;19.026;2023-01-13T11:54:34;100313.75;;;3.88;91.19
68107;BME280;54892;47.488;19.026;2023-01-13T11:58:10;100297.66;;;3.91;91.37
68107;BME280;54892;47.488;19.026;2023-01-13T12:01:27;100295.03;;;4.04;90.27
68107;BME280;54892;47.488;19.026;2023-01-13T12:04:39;100288.81;;;3.92;90.34
68107;BME280;54892;47.488;19.026;2023-01-13T12:07:52;100280.19;;;3.85;90.76
68107;BME280;54892;47.488;19.026;2023-01-13T12:11:00;100278.38;;;3.78;90.93
68107;BME280;54892;47.488;19.026;2023-01-13T12:14:16;100258.13;;;3.74;91.65
68107;BME280;54892;47.488;19.026;2023-01-13T12:17:30;100253.28;;;3.77;90.96
68107;BME280;54892;47.488;19.026;2023-01-13T12:20:42;100245.66;;;3.76;91.40
68107;BME280;54892;47.488;19.026;2023-01-13T12:24:03;100242.44;;;3.74;92.01
68107;BME280;54892;47.488;19.026;2023-01-13T12:27:14;100241.06;;;3.78;91.59
68107;BME280;54892;47.488;19.026;2023-01-13T12:30:25;100240.03;;;3.79;91.79
68107;BME280;54892;47.488;19.026;2023-01-13T12:33:43;100245.25;;;3.79;91.98
68107;BME280;54892;47.488;19.026;2023-01-13T12:36:54;100245.66;;;3.83;92.12
68107;BME280;54892;47.488;19.026;2023-01-13T12:40:17;100249.63;;;3.92;91.76
68107;BME280;54892;47.488;19.026;2023-01-13T12:43:22;100260.50;;;3.95;91.86
68107;BME280;54892;47.488;19.026;2023-01-13T12:46:49;100253.06;;;3.99;91.79
68107;BME280;54892;47.488;19.026;2023-01-13T12:50:40;100253.66;;;4.01;91.76
68107;BME280;54892;47.488;19.026;2023-01-13T12:53:44;100252.41;;;4.10;91.51
68107;BME280;54892;47.488;19.026;2023-01-13T12:56:47;100245.16;;;4.19;90.18
68107;BME280;54892;47.488;19.026;2023-01-13T13:00:12;100250.00;;;4.09;91.12
68107;BME280;54892;47.488;19.026;2023-01-13T13:03:29;100250.81;;;4.09;91.51
68107;BME280;54892;47.488;19.026;2023-01-13T13:06:35;100246.81;;;4.07;91.38
68107;BME280;54892;47.488;19.026;2023-01-13T13:09:42;100248.41;;;4.08;91.48
68107;BME280;54892;47.488;19.026;2023-01-13T13:13:05;100252.81;;;4.07;91.85
68107;BME280;54892;47.488;19.026;2023-01-13T13:16:43;100252.19;;;4.25;91.01
68107;BME280;54892;47.488;19.026;2023-01-13T13:19:48;100254.03;;;4.11;91.90
68107;BME280;54892;47.488;19.026;2023-01-13T13:22:52;100260.81;;;4.19;91.66
68107;BME280;54892;47.488;19.026;2023-01-13T13:26:01;100268.03;;;4.24;91.46
68107;BME280;54892;47.488;19.026;2023-01-13T13:29:33;100266.06;;;4.19;91.97
68107;BME280;54892;47.488;19.026;2023-01-13T13:33:03;100251.16;;;4.33;91.27
68107;BME280;54892;47.488;19.026;2023-01-13T13:36:25;100252.78;;;4.28;91.16
68107;BME280;54892;47.488;19.026;2023-01-13T13:39:34;100254.37;;;4.22;91.47
68107;BME280;54892;47.488;19.026;2023-01-13T13:42:57;100255.97;;;4.23;91.51
68107;BME280;54892;47.488;19.026;2023-01-13T13:46:27;100263.22;;;4.21;92.33
68107;BME280;54892;47.488;19.026;2023-01-13T13:49:50;100256.81;;;4.23;92.55
68107;BME280;54892;47.488;19.026;2023-01-13T13:53:00;100261.16;;;4.36;91.65
68107;BME280;54892;47.488;19.026;2023-01-13T13:56:15;100271.63;;;4.30;92.49
68107;BME280;54892;47.488;19.026;2023-01-13T13:59:22;100273.03;;;4.39;92.63
68107;BME280;54892;47.488;19.026;2023-01-13T14:02:29;100271.41;;;4.45;92.20
68107;BME280;54892;47.488;19.026;2023-01-13T14:05:34;100277.25;;;4.40;92.62
68107;BME280;54892;47.488;19.026;2023-01-13T14:08:39;100280.87;;;4.39;92.90
68107;BME280;54892;47.488;19.026;2023-01-13T14:11:55;100281.84;;;4.45;92.71
68107;BME280;54892;47.488;19.026;2023-01-13T14:14:58;100275.22;;;4.49;92.43
68107;BME280;54892;47.488;19.026;2023-01-13T14:18:04;100288.03;;;4.57;92.00
68107;BME280;54892;47.488;19.026;2023-01-13T14:21:17;100284.06;;;4.48;92.38
68107;BME280;54892;47.488;19.026;2023-01-13T14:24:25;100283.22;;;4.47;92.70
68107;BME280;54892;47.488;19.026;2023-01-13T14:27:29;100286.44;;;4.49;92.81
68107;BME280;54892;47.488;19.026;2023-01-13T14:30:34;100286.62;;;4.54;92.63
68107;BME280;54892;47.488;19.026;2023-01-13T14:33:40;100284.06;;;4.48;93.28
68107;BME280;54892;47.488;19.026;2023-01-13T14:36:45;100269.38;;;4.47;93.48
68107;BME280;54892;47.488;19.026;2023-01-13T14:39:53;100278.41;;;4.51;93.70
68107;BME280;54892;47.488;19.026;2023-01-13T14:42:57;100279.16;;;4.65;92.89
68107;BME280;54892;47.488;19.026;2023-01-13T14:46:01;100278.31;;;4.71;93.11
68107;BME280;54892;47.488;19.026;2023-01-13T14:49:14;100283.59;;;4.64;93.37
68107;BME280;54892;47.488;19.026;2023-01-13T14:52:27;100282.38;;;4.60;94.07
68107;BME280;54892;47.488;19.026;2023-01-13T14:55:34;100284.59;;;4.63;94.47
68107;BME280;54892;47.488;19.026;2023-01-13T14:58:39;100281.56;;;4.66;94.61
68107;BME280;54892;47.488;19.026;2023-01-13T15:01:43;100279.47;;;4.82;93.92
68107;BME280;54892;47.488;19.026;2023-01-13T15:04:47;100283.12;;;4.74;94.24
68107;BME280;54892;47.488;19.026;2023-01-13T15:07:56;100283.12;;;4.74;94.52
68107;BME280;54892;47.488;19.026;2023-01-13T15:11:02;100285.53;;;4.76;94.69
68107;BME280;54892;47.488;19.026;2023-01-13T15:14:09;100282.31;;;4.73;94.63
68107;BME280;54892;47.488;19.026;2023-01-13T15:17:15;100283.34;;;4.72;94.82
68107;BME280;54892;47.488;19.026;2023-01-13T15:20:21;100278.69;;;4.75;94.91
68107;BME280;54892;47.488;19.026;2023-01-13T15:23:25;100272.88;;;4.72;94.95
68107;BME280;54892;47.488;19.026;2023-01-13T15:26:32;100273.47;;;4.75;94.74
68107;BME280;54892;47.488;19.026;2023-01-13T15:29:37;100273.12;;;4.64;95.10
68107;BME280;54892;47.488;19.026;2023-01-13T15:32:42;100281.56;;;4.60;95.76
68107;BME280;54892;47.488;19.026;2023-01-13T15:35:47;100282.94;;;4.69;95.53
68107;BME280;54892;47.488;19.026;2023-01-13T15:38:51;100280.13;;;4.70;95.17
68107;BME280;54892;47.488;19.026;2023-01-13T15:41:57;100285.75;;;4.67;95.52
68107;BME280;54892;47.488;19.026;2023-01-13T15:45:18;100282.72;;;4.70;95.38
68107;BME280;54892;47.488;19.026;2023-01-13T15:48:40;100285.97;;;4.66;95.72
68107;BME280;54892;47.488;19.026;2023-01-13T15:51:44;100288.78;;;4.71;95.33
68107;BME280;54892;47.488;19.026;2023-01-13T15:54:47;100301.81;;;4.78;95.13
68107;BME280;54892;47.488;19.026;2023-01-13T15:57:52;100301.47;;;4.61;95.81
68107;BME280;54892;47.488;19.026;2023-01-13T16:00:55;100302.03;;;4.69;95.88
68107;BME280;54892;47.488;19.026;2023-01-13T16:03:59;100307.72;;;4.60;96.03
68107;BME280;54892;47.488;19.026;2023-01-13T16:07:11;100309.28;;;4.67;96.28
68107;BME280;54892;47.488;19.026;2023-01-13T16:10:16;100306.28;;;4.64;96.47
68107;BME280;54892;47.488;19.026;2023-01-13T16:13:21;100301.66;;;4.66;96.50
68107;BME280;54892;47.488;19.026;2023-01-13T16:16:26;100301.19;;;7.14;100.00
68107;BME280;54892;47.488;19.026;2023-01-13T16:19:31;100291.25;;;9.05;92.09
68107;BME280;54892;47.488;19.026;2023-01-13T16:22:34;100294.53;;;9.80;83.02
68107;BME280;54892;47.488;19.026;2023-01-13T16:25:39;100303.88;;;8.09;79.74
68107;BME280;54892;47.488;19.026;2023-01-13T16:28:45;100302.13;;;7.20;83.99
68107;BME280;54892;47.488;19.026;2023-01-13T16:31:49;100302.34;;;6.57;86.76